Time;durP1;ratioP1;P1;durP2;ratioP2;P2;SDS_P1;SDS_P2;PMS_P1;PMS_P2;Temp;Humidity;BMP_temperature;BMP_pressure;BME280_temperature;BME280_humidity;BME280_pressure;Samples;Min_cycle;Max_cycle;Signal;HPM_P1;HPM_P2
2022/06/04 00:00:13;;;;;;;6.50;2.17;;;;;;;14.62;58.58;99892.06;4990224;28;20038;-84
2022/06/04 00:02:39;;;;;;;8.45;2.53;;;;;;;14.56;57.46;99874.72;4984112;28;20088;-84
2022/06/04 00:05:06;;;;;;;5.47;2.33;;;;;;;14.53;57.86;99874.81;5014332;28;20096;-84
2022/06/04 00:07:32;;;;;;;7.82;2.30;;;;;;;14.62;57.40;99873.78;4988945;28;20022;-84
2022/06/04 00:15:29;;;;;;;3.67;2.28;;;;;;;14.30;58.32;99882.97;5011080;28;20042;-83
2022/06/04 00:17:55;;;;;;;3.08;2.05;;;;;;;14.23;57.99;99871.75;4996626;28;20038;-83
2022/06/04 00:20:21;;;;;;;5.25;2.13;;;;;;;14.41;57.62;99880.19;5008536;28;20042;-84
2022/06/04 00:22:47;;;;;;;3.38;1.85;;;;;;;14.40;57.64;99873.25;4998386;28;20038;-83
2022/06/04 00:25:14;;;;;;;8.05;2.33;;;;;;;14.45;57.17;99881.88;4980128;28;20038;-84
2022/06/04 00:27:40;;;;;;;3.05;1.90;;;;;;;14.58;57.19;99893.88;4996689;28;20489;-84
2022/06/04 00:30:07;;;;;;;5.47;2.22;;;;;;;14.57;56.91;99880.81;5013342;28;20145;-84
2022/06/04 00:32:37;;;;;;;7.20;2.00;;;;;;;14.61;56.59;99888.56;5026618;28;20108;-85
2022/06/04 00:35:03;;;;;;;5.43;1.90;;;;;;;14.49;57.46;99887.03;5012601;28;20129;-83
2022/06/04 00:37:33;;;;;;;4.47;2.10;;;;;;;14.61;57.18;99888.56;4995834;28;20034;-83
2022/06/04 00:39:59;;;;;;;9.82;2.30;;;;;;;14.57;57.15;99886.03;4996627;28;20045;-84
2022/06/04 00:42:25;;;;;;;4.30;1.98;;;;;;;14.56;56.69;99877.34;4997089;28;20042;-83
2022/06/04 00:44:57;;;;;;;4.72;2.30;;;;;;;14.48;57.21;99884.47;5012103;28;20061;-84
2022/06/04 00:47:26;;;;;;;6.78;2.22;;;;;;;14.68;56.76;99881.50;5012344;28;20057;-84
2022/06/04 00:49:52;;;;;;;4.55;2.35;;;;;;;14.59;56.85;99879.91;4992645;28;20422;-84
2022/06/04 00:52:17;;;;;;;5.22;2.63;;;;;;;14.33;57.28;99869.00;4993495;28;20038;-84
2022/06/04 00:54:43;;;;;;;5.28;2.72;;;;;;;14.28;57.47;99873.44;4974837;28;20053;-85
2022/06/04 00:57:15;;;;;;;4.22;2.42;;;;;;;14.30;57.94;99889.94;5012198;28;20041;-84
2022/06/04 00:59:56;;;;;;;5.57;2.40;;;;;;;14.07;58.67;99890.31;5006377;28;20059;-84
2022/06/04 01:02:53;;;;;;;4.40;2.75;;;;;;;13.96;59.15;99899.13;5010794;28;20117;-84
2022/06/04 01:05:19;;;;;;;7.07;2.80;;;;;;;13.98;59.36;99883.47;5007735;28;20038;-84
2022/06/04 01:07:53;;;;;;;4.80;2.60;;;;;;;14.00;59.22;99884.28;5013699;28;20037;-83
2022/06/04 01:10:24;;;;;;;5.05;2.70;;;;;;;14.05;59.41;99889.44;4998811;28;20044;-84
2022/06/04 01:12:59;;;;;;;7.60;2.42;;;;;;;14.05;58.95;99887.69;4998292;28;20038;-85
2022/06/04 01:15:47;;;;;;;6.43;2.60;;;;;;;13.96;58.96;99888.69;5013407;28;20053;-85
2022/06/04 01:18:37;;;;;;;7.13;2.60;;;;;;;13.86;59.43;99897.53;5000437;28;20142;-84
2022/06/04 01:21:52;;;;;;;6.68;2.53;;;;;;;13.88;59.71;99894.88;4996507;28;20050;-83
2022/06/04 01:24:46;;;;;;;4.93;2.15;;;;;;;13.91;59.17;99900.06;4981432;28;20108;-83
2022/06/04 01:27:18;;;;;;;7.15;2.58;;;;;;;13.80;59.11;99894.16;5008967;28;20453;-83
2022/06/04 01:29:53;;;;;;;4.43;2.38;;;;;;;13.63;60.06;99891.75;5011913;28;20050;-88
2022/06/04 01:32:22;;;;;;;6.57;2.87;;;;;;;13.55;60.15;99899.66;5015376;28;20482;-83
2022/06/04 01:35:09;;;;;;;6.22;2.47;;;;;;;13.39;60.69;99903.34;4989897;28;20101;-84
2022/06/04 01:37:53;;;;;;;6.50;2.20;;;;;;;13.29;61.16;99901.75;4990295;28;20489;-84
2022/06/04 01:43:09;;;;;;;5.85;2.50;;;;;;;13.33;60.74;99901.69;5004864;28;20030;-83
2022/06/04 01:45:35;;;;;;;8.70;2.30;;;;;;;13.45;60.61;99901.53;5008089;28;20027;-83
2022/06/04 01:48:01;;;;;;;7.00;2.40;;;;;;;13.29;60.07;99875.69;4994756;28;20053;-84
2022/06/04 01:50:32;;;;;;;;;;;;;;;13.46;60.58;99907.59;5008583;28;20486;-84
2022/06/04 01:52:58;;;;;;;5.97;2.30;;;;;;;13.26;60.90;99910.44;4992540;28;19918;-84
2022/06/04 01:55:36;;;;;;;9.40;2.47;;;;;;;13.13;61.54;99899.25;4994356;28;20038;-84
2022/06/04 01:58:07;;;;;;;6.68;2.50;;;;;;;13.28;61.30;99906.06;5009349;28;20569;-83
2022/06/04 02:00:34;;;;;;;6.88;2.45;;;;;;;13.35;60.73;99909.47;4994957;28;20545;-83
2022/06/04 02:03:22;;;;;;;6.63;2.30;;;;;;;13.19;61.62;99909.63;4994386;28;20117;-83
2022/06/04 02:06:03;;;;;;;4.15;2.00;;;;;;;13.23;61.78;99900.91;4996989;28;20042;-83
2022/06/04 02:08:33;;;;;;;5.97;2.38;;;;;;;13.40;60.99;99905.06;4993707;28;20469;-82
2022/06/04 02:11:03;;;;;;;8.95;2.50;;;;;;;13.43;60.54;99905.03;4978572;28;20038;-83
2022/06/04 02:13:29;;;;;;;6.05;2.53;;;;;;;13.29;60.76;99909.56;4974945;28;20026;-84
2022/06/04 02:15:58;;;;;;;7.22;2.58;;;;;;;13.28;61.02;99913.00;4994612;28;20128;-84
2022/06/04 02:18:24;;;;;;;4.78;2.30;;;;;;;13.17;61.40;99906.16;5011094;28;20045;-83
2022/06/04 02:20:49;;;;;;;5.03;2.30;;;;;;;13.16;61.24;99907.03;4994919;28;20524;-84
2022/06/04 02:23:15;;;;;;;6.45;2.50;;;;;;;13.20;61.34;99906.13;4998032;28;20054;-85
2022/06/04 02:25:41;;;;;;;7.18;2.33;;;;;;;13.27;61.18;99898.28;4980113;28;20418;-84
2022/06/04 02:28:07;;;;;;;4.75;2.20;;;;;;;13.39;61.73;99906.81;5008812;28;20030;-84
2022/06/04 02:30:41;;;;;;;4.53;2.70;;;;;;;13.16;62.05;99888.81;4988898;28;20039;-83
2022/06/04 02:33:07;;;;;;;3.90;2.58;;;;;;;13.19;62.52;99909.63;4997790;28;20041;-84
2022/06/04 02:35:34;;;;;;;7.00;2.92;;;;;;;13.07;63.01;99909.75;4994807;28;20100;-84
2022/06/04 02:38:12;;;;;;;3.75;2.58;;;;;;;13.04;63.60;99912.38;5005023;28;20031;-84
2022/06/04 02:40:53;;;;;;;5.43;3.30;;;;;;;13.01;64.30;99911.53;5003740;28;20042;-84
2022/06/04 02:43:46;;;;;;;6.15;2.95;;;;;;;13.01;64.83;99909.78;4998006;28;20074;-83
2022/06/04 02:46:14;;;;;;;4.90;2.60;;;;;;;12.93;63.99;99904.66;5007482;28;20258;-84
2022/06/04 02:48:50;;;;;;;4.28;2.45;;;;;;;12.93;64.05;99906.41;4988269;28;20500;-84
2022/06/04 02:51:19;;;;;;;5.55;2.90;;;;;;;12.90;64.43;99906.44;4977529;28;20050;-82
2022/06/04 02:53:45;;;;;;;6.13;3.15;;;;;;;12.86;65.23;99899.53;4989450;28;20398;-83
2022/06/04 02:56:15;;;;;;;6.93;3.33;;;;;;;12.82;65.83;99903.91;4994072;28;20046;-84
2022/06/04 02:58:42;;;;;;;4.70;2.50;;;;;;;12.76;65.05;99897.91;4978772;28;20074;-85
2022/06/04 03:01:09;;;;;;;4.97;2.35;;;;;;;12.78;64.04;99903.94;4996808;28;20049;-83
2022/06/04 03:03:35;;;;;;;5.03;2.53;;;;;;;12.89;63.85;99900.38;4996797;28;20464;-83
2022/06/04 03:06:02;;;;;;;3.65;2.00;;;;;;;12.90;63.34;99893.41;5004092;28;20068;-84
2022/06/04 03:08:29;;;;;;;4.40;2.38;;;;;;;12.95;63.36;99899.44;4994587;28;20026;-84
2022/06/04 03:10:55;;;;;;;4.28;2.10;;;;;;;13.02;63.07;99889.84;5007838;28;20511;-83
2022/06/04 03:13:21;;;;;;;;;;;;;;;13.19;63.09;99908.72;4991730;28;20070;-84
2022/06/04 03:15:47;;;;;;;8.35;2.00;;;;;;;13.29;62.42;99894.78;4993904;28;19940;-84
2022/06/04 03:18:14;;;;;;;4.07;2.30;;;;;;;13.39;61.44;99903.34;4990534;28;20062;-84
2022/06/04 03:20:40;;;;;;;4.40;2.15;;;;;;;13.32;61.23;99899.06;4991331;28;20490;-83
2022/06/04 03:23:06;;;;;;;;;;;;;;;13.59;61.68;99908.31;4981100;28;20034;-83
2022/06/04 03:25:33;;;;;;;3.53;1.77;;;;;;;13.65;60.82;99908.22;5007974;28;19925;-83
2022/06/04 03:27:59;;;;;;;4.82;2.13;;;;;;;13.55;60.81;99894.44;4978942;28;20038;-84
2022/06/04 03:30:28;;;;;;;;;;;;;;;13.68;61.10;99906.44;5021271;28;20374;-84
2022/06/04 03:32:54;;;;;;;3.70;2.25;;;;;;;13.52;60.59;99891.91;5005269;28;19917;-83
2022/06/04 03:35:20;;;;;;;4.88;2.20;;;;;;;13.62;61.08;99905.69;4986175;28;20105;-84
2022/06/04 03:37:45;;;;;;;5.45;2.13;;;;;;;13.73;60.89;99894.22;5011915;28;20109;-84
2022/06/04 03:40:12;;;;;;;;;;;;;;;13.99;60.17;99900.84;4986310;28;20042;-84
2022/06/04 03:42:38;;;;;;;3.10;1.85;;;;;;;13.91;59.45;99887.88;5010264;28;19913;-85
2022/06/04 03:45:05;;;;;;;3.08;1.90;;;;;;;13.98;59.72;99892.16;4978509;28;20081;-83
2022/06/04 03:47:36;;;;;;;4.30;2.10;;;;;;;14.04;59.30;99885.97;5015389;28;20122;-84
2022/06/04 03:50:13;;;;;;;3.60;1.70;;;;;;;14.12;59.06;99899.78;4997146;28;20516;-84
2022/06/04 03:52:39;;;;;;;8.30;2.20;;;;;;;13.94;58.84;99884.38;4992590;28;20038;-84
2022/06/04 03:55:05;;;;;;;4.03;2.25;;;;;;;14.04;59.26;99905.97;4998176;28;20125;-85
2022/06/04 03:57:44;;;;;;;4.13;2.20;;;;;;;14.21;58.91;99904.00;4986981;28;20050;-84
2022/06/04 04:00:12;;;;;;;4.57;1.77;;;;;;;14.39;58.37;99903.72;4986056;28;20176;-84
2022/06/04 04:02:39;;;;;;;5.63;1.83;;;;;;;14.41;57.65;99901.06;5014549;28;20076;-83
2022/06/04 04:05:06;;;;;;;3.92;1.90;;;;;;;14.15;58.68;99899.72;4998020;28;20524;-84
2022/06/04 04:07:32;;;;;;;5.70;1.80;;;;;;;14.07;59.14;99906.81;4981196;28;20038;-82
2022/06/04 04:09:57;;;;;;;4.55;1.83;;;;;;;14.02;59.44;99897.31;4964590;28;20026;-82
2022/06/04 04:12:23;;;;;;;3.72;2.17;;;;;;;14.09;59.53;99910.25;4978477;28;20072;-83
2022/06/04 04:14:49;;;;;;;4.78;2.10;;;;;;;14.15;59.62;99893.63;4998528;28;20053;-83
2022/06/04 04:17:15;;;;;;;5.32;2.10;;;;;;;14.17;59.45;99897.97;4997703;28;20065;-85
2022/06/04 04:19:41;;;;;;;6.47;2.25;;;;;;;14.20;59.91;99902.25;5013135;28;20042;-83
2022/06/04 04:22:06;;;;;;;4.00;1.92;;;;;;;14.19;59.88;99901.38;5013625;28;20034;-83
2022/06/04 04:24:32;;;;;;;10.35;2.28;;;;;;;14.21;59.95;99893.56;4997087;28;20042;-85
2022/06/04 04:26:58;;;;;;;4.38;2.22;;;;;;;14.37;59.20;99895.03;5011078;28;20039;-84
2022/06/04 04:29:23;;;;;;;3.70;2.05;;;;;;;14.45;59.38;99900.13;5014225;28;20045;-84
2022/06/04 04:31:49;;;;;;;;;;;;;;;14.56;59.14;99900.84;4998253;28;20030;-83
2022/06/04 04:34:15;;;;;;;6.90;2.78;;;;;;;14.57;59.01;99896.47;5013499;28;19924;-83
2022/06/04 04:36:40;;;;;;;6.50;2.20;;;;;;;14.46;58.78;99860.09;4994384;28;20027;-82
2022/06/04 04:39:06;;;;;;;4.40;1.70;;;;;;;14.56;59.94;99895.63;4992735;28;20493;-83
2022/06/04 04:41:31;;;;;;;;;;;;;;;14.65;60.32;99900.69;4981673;28;20034;-83
2022/06/04 04:43:58;;;;;;;6.97;3.28;;;;;;;14.66;59.72;99894.59;4997281;28;20343;-83
2022/06/04 04:46:23;;;;;;;7.30;2.30;;;;;;;14.64;59.38;99888.53;5012617;28;20039;-84
2022/06/04 04:48:49;;;;;;;5.28;2.30;;;;;;;14.64;59.99;99887.66;4989565;28;20062;-83
2022/06/04 04:51:18;;;;;;;6.95;2.17;;;;;;;14.70;59.94;99896.25;5028049;28;20056;-85
2022/06/04 04:53:44;;;;;;;3.83;2.33;;;;;;;14.81;59.81;99906.53;5000840;28;20500;-86
2022/06/04 04:56:10;;;;;;;6.63;2.35;;;;;;;14.77;60.27;99904.00;5000601;28;20042;-85
2022/06/04 04:58:37;;;;;;;6.80;2.22;;;;;;;14.81;60.63;99900.44;5015609;28;20087;-84
2022/06/04 05:01:03;;;;;;;7.60;2.50;;;;;;;14.82;60.86;99892.56;5018322;28;20065;-86
2022/06/04 05:03:30;;;;;;;5.40;2.38;;;;;;;14.88;59.89;99896.81;5001268;28;20045;-84
2022/06/04 05:06:01;;;;;;;6.50;3.53;;;;;;;14.98;60.06;99888.81;5016184;28;20009;-84
2022/06/04 05:08:26;;;;;;;5.60;2.08;;;;;;;15.11;59.62;99880.72;4983294;28;20037;-85
2022/06/04 05:10:52;;;;;;;7.70;2.30;;;;;;;15.04;59.39;99882.59;5015730;28;20029;-85
2022/06/04 05:13:19;;;;;;;6.43;2.20;;;;;;;15.05;59.83;99876.47;5015983;28;20037;-85
2022/06/04 05:15:45;;;;;;;5.43;2.03;;;;;;;15.23;59.50;99885.72;4981756;28;20034;-84
2022/06/04 05:18:11;;;;;;;8.43;2.55;;;;;;;15.30;59.52;99889.06;4971917;28;20093;-85
2022/06/04 05:20:37;;;;;;;3.97;2.17;;;;;;;15.36;59.46;99875.88;4997274;28;20398;-85
2022/06/04 05:23:03;;;;;;;3.92;1.92;;;;;;;15.59;58.73;99889.34;4977480;28;20137;-84
2022/06/04 05:25:29;;;;;;;3.75;2.22;;;;;;;15.48;59.68;99879.09;4993432;28;20528;-85
2022/06/04 05:27:55;;;;;;;6.00;2.40;;;;;;;15.61;59.51;99894.53;4986828;28;20129;-85
2022/06/04 05:30:20;;;;;;;5.13;2.55;;;;;;;15.66;59.72;99896.19;4981516;28;20030;-85
2022/06/04 05:32:46;;;;;;;8.00;2.30;;;;;;;15.69;59.64;99893.53;5014639;28;20120;-84
2022/06/04 05:35:12;;;;;;;4.45;2.50;;;;;;;15.63;59.78;99877.94;4980697;28;20077;-85
2022/06/04 05:37:38;;;;;;;4.55;2.65;;;;;;;15.75;59.78;99902.97;4996409;28;20097;-84
2022/06/04 05:40:04;;;;;;;5.35;2.13;;;;;;;15.86;59.03;99894.94;4996969;28;20036;-85
2022/06/04 05:42:30;;;;;;;7.57;2.40;;;;;;;15.80;59.97;99892.41;4992601;28;20525;-84
2022/06/04 05:44:56;;;;;;;4.85;2.30;;;;;;;15.64;59.37;99876.22;4990223;28;20022;-84
2022/06/04 05:47:22;;;;;;;5.15;2.00;;;;;;;15.87;59.11;99889.66;4990463;28;20042;-84
2022/06/04 05:49:47;;;;;;;3.40;2.17;;;;;;;15.91;59.06;99895.69;4981183;28;20054;-83
2022/06/04 05:52:13;;;;;;;5.28;2.10;;;;;;;16.02;59.28;99901.53;4974144;28;20046;-85
2022/06/04 05:54:39;;;;;;;8.57;2.10;;;;;;;16.00;59.00;99882.38;4985225;28;20065;-84
2022/06/04 05:57:05;;;;;;;4.70;1.95;;;;;;;16.25;57.95;99891.38;5013688;28;20053;-83
2022/06/04 05:59:30;;;;;;;14.15;8.00;;;;;;;16.29;59.22;99889.56;4995692;28;20030;-83
2022/06/04 06:01:56;;;;;;;4.65;2.58;;;;;;;16.34;57.98;99892.06;5019860;28;20038;-84
2022/06/04 06:04:25;;;;;;;5.57;2.15;;;;;;;16.38;57.35;99889.34;5005383;28;20125;-88
2022/06/04 06:06:52;;;;;;;4.32;1.92;;;;;;;16.43;56.94;99891.84;4983942;28;20107;-84
2022/06/04 06:09:20;;;;;;;4.15;2.10;;;;;;;16.46;56.76;99892.63;4996890;28;20026;-84
2022/06/04 06:11:46;;;;;;;3.58;2.30;;;;;;;16.62;56.66;99903.56;4995922;28;20046;-84
2022/06/04 06:14:12;;;;;;;5.63;2.47;;;;;;;16.85;56.02;99905.66;4999076;28;20444;-84
2022/06/04 06:16:43;;;;;;;6.20;1.90;;;;;;;16.84;54.99;99897.84;4997542;28;20132;-83
2022/06/04 06:19:09;;;;;;;2.58;1.65;;;;;;;17.12;54.69;99906.69;5015847;28;20038;-84
2022/06/04 06:21:35;;;;;;;5.80;1.75;;;;;;;17.24;53.49;99906.38;4997356;28;20121;-84
2022/06/04 06:24:02;;;;;;;4.50;1.75;;;;;;;17.38;52.97;99898.09;5017112;28;20073;-87
2022/06/04 06:26:32;;;;;;;4.85;1.60;;;;;;;17.62;51.72;99911.44;4983131;28;20033;-84
2022/06/04 06:29:03;;;;;;;4.35;1.77;;;;;;;17.75;51.27;99889.22;4983035;28;20042;-85
2022/06/04 06:31:29;;;;;;;2.85;1.67;;;;;;;17.93;50.69;99890.41;5008402;28;20060;-81
2022/06/04 06:33:55;;;;;;;2.67;1.52;;;;;;;18.14;50.46;99883.63;5001224;28;20145;-82
2022/06/04 06:36:22;;;;;;;4.13;1.70;;;;;;;18.32;48.57;99893.56;5008609;28;20050;-81
2022/06/04 06:38:47;;;;;;;2.20;1.50;;;;;;;18.40;50.49;99877.56;4995605;28;20034;-83
2022/06/04 06:41:14;;;;;;;3.47;1.50;;;;;;;18.40;47.78;99880.19;4968456;28;20077;-82
2022/06/04 06:43:52;;;;;;;5.30;1.80;;;;;;;18.31;47.44;99888.34;4991514;28;20027;-83
2022/06/04 06:46:26;;;;;;;4.57;1.80;;;;;;;18.53;47.12;99892.00;5008640;28;20049;-86
2022/06/04 06:48:55;;;;;;;2.75;1.67;;;;;;;18.46;47.92;99883.47;4996558;28;20448;-84
2022/06/04 06:51:24;;;;;;;3.10;1.50;;;;;;;18.58;46.94;99892.72;4977297;28;20042;-83
2022/06/04 06:53:49;;;;;;;4.53;1.85;;;;;;;18.79;49.25;99871.00;4960850;28;20523;-81
2022/06/04 06:56:19;;;;;;;3.53;1.77;;;;;;;19.22;46.71;99894.94;4993730;28;20042;-85
2022/06/04 06:58:45;;;;;;;7.47;1.40;;;;;;;19.32;45.24;99887.56;4977559;28;20129;-84
2022/06/04 07:01:11;;;;;;;2.67;1.48;;;;;;;19.39;45.00;99871.50;4994559;28;20405;-84
2022/06/04 07:03:40;;;;;;;3.20;1.40;;;;;;;19.60;43.79;99892.66;4997810;28;20579;-84
2022/06/04 07:06:07;;;;;;;3.22;1.63;;;;;;;19.62;43.37;99883.84;5015501;28;20032;-81
2022/06/04 07:08:34;;;;;;;3.53;1.17;;;;;;;19.53;43.63;99873.63;4996856;28;20394;-82
2022/06/04 07:11:00;;;;;;;2.20;1.60;;;;;;;19.58;43.29;99853.25;4995836;28;20069;-85
2022/06/04 07:13:31;;;;;;;4.20;1.77;;;;;;;19.83;44.07;99894.44;5034186;28;20042;-83
2022/06/04 07:15:57;;;;;;;2.35;1.35;;;;;;;19.86;43.60;99875.91;4993084;28;20046;-86
2022/06/04 07:18:23;;;;;;;2.63;1.60;;;;;;;19.95;43.81;99870.28;5003117;28;20069;-84
2022/06/04 07:20:50;;;;;;;5.38;1.55;;;;;;;19.84;44.25;99849.66;4994712;28;20037;-80
2022/06/04 07:23:16;;;;;;;3.78;1.42;;;;;;;19.84;45.19;99872.47;5000084;28;20037;-79
2022/06/04 07:25:44;;;;;;;2.05;1.30;;;;;;;19.85;43.01;99875.06;5004759;28;20065;-80
2022/06/04 07:28:11;;;;;;;3.10;1.30;;;;;;;19.87;42.89;99875.00;4999410;28;20460;-79
2022/06/04 07:30:37;;;;;;;4.15;1.58;;;;;;;19.83;43.91;99865.50;5014810;28;20033;-80
2022/06/04 07:33:02;;;;;;;6.72;1.70;;;;;;;19.89;45.11;99875.81;4982153;28;20129;-81
2022/06/04 07:35:30;;;;;;;2.70;1.50;;;;;;;20.11;44.18;99875.78;5023653;28;20076;-80
2022/06/04 07:37:57;;;;;;;6.28;1.60;;;;;;;20.21;43.40;99856.94;5002309;28;20034;-80
2022/06/04 07:40:23;;;;;;;2.85;1.50;;;;;;;20.27;42.60;99861.97;5015337;28;20409;-79
2022/06/04 07:42:48;;;;;;;3.80;1.83;;;;;;;20.36;43.63;99867.78;5000791;28;20041;-80
2022/06/04 07:45:14;;;;;;;1.80;1.40;;;;;;;20.40;43.40;99861.47;5013358;28;20038;-78
2022/06/04 07:47:41;;;;;;;4.93;1.50;;;;;;;20.44;41.35;99868.31;5021664;28;20097;-81
2022/06/04 07:50:09;;;;;;;6.20;1.70;;;;;;;20.40;41.22;99853.56;5004510;28;20054;-82
2022/06/04 07:52:37;;;;;;;2.70;1.60;;;;;;;20.45;41.74;99859.50;5013971;28;20137;-82
2022/06/04 07:55:06;;;;;;;5.55;1.55;;;;;;;20.51;42.11;99851.34;5033995;28;20085;-81
2022/06/04 07:57:33;;;;;;;5.15;1.40;;;;;;;20.75;40.53;99874.03;5000006;28;20038;-79
2022/06/04 07:59:59;;;;;;;10.85;2.08;;;;;;;20.93;41.34;99861.00;4991675;28;20063;-79
2022/06/04 08:02:26;;;;;;;4.90;1.83;;;;;;;21.09;41.59;99843.59;5004218;28;20061;-81
2022/06/04 08:04:53;;;;;;;4.80;1.38;;;;;;;21.27;40.05;99858.59;5003583;28;20408;-82
2022/06/04 08:07:20;;;;;;;4.28;1.52;;;;;;;21.31;39.83;99852.28;4998143;28;20046;-81
2022/06/04 08:09:57;;;;;;;3.53;1.50;;;;;;;21.46;41.15;99852.50;5004319;28;20042;-81
2022/06/04 08:12:23;;;;;;;5.43;1.45;;;;;;;21.48;41.85;99833.03;5012260;28;20045;-81
2022/06/04 08:14:49;;;;;;;12.70;1.83;;;;;;;21.85;44.93;99851.56;5000097;28;20041;-81
2022/06/04 08:17:15;;;;;;;3.53;1.80;;;;;;;21.91;38.02;99823.09;4979496;28;20049;-82
2022/06/04 08:19:41;;;;;;;12.57;2.00;;;;;;;21.93;39.40;99815.94;4991381;28;20035;-85
2022/06/04 08:22:06;;;;;;;3.70;1.40;;;;;;;22.06;39.54;99829.41;5007578;28;20049;-83
2022/06/04 08:24:33;;;;;;;32.42;2.72;;;;;;;22.37;38.24;99846.44;5013192;28;20045;-80
2022/06/04 08:26:59;;;;;;;4.32;1.35;;;;;;;22.38;37.88;99827.00;5010011;28;20046;-78
2022/06/04 08:29:26;;;;;;;5.00;1.48;;;;;;;22.57;38.26;99847.16;5007964;28;20038;-80
2022/06/04 08:31:53;;;;;;;3.35;1.58;;;;;;;22.53;38.57;99837.66;5036286;28;20037;-82
2022/06/04 08:34:20;;;;;;;5.38;1.60;;;;;;;22.60;39.88;99821.50;5028977;28;20437;-82
2022/06/04 08:36:47;;;;;;;9.43;1.55;;;;;;;23.00;39.43;99828.22;5019575;28;20049;-82
2022/06/04 08:39:15;;;;;;;2.30;1.42;;;;;;;23.29;37.61;99824.91;5010829;28;20043;-81
2022/06/04 08:42:00;;;;;;;3.70;1.40;;;;;;;23.49;36.15;99825.59;5025476;28;20022;-82
2022/06/04 08:44:33;;;;;;;3.00;1.80;;;;;;;23.69;39.75;99827.22;5048090;28;20038;-81
2022/06/04 08:47:11;;;;;;;2.20;1.42;;;;;;;23.94;35.86;99827.53;5012034;28;20044;-82
2022/06/04 08:50:04;;;;;;;2.47;1.50;;;;;;;24.19;37.44;99819.03;5054931;28;20080;-86
2022/06/04 08:52:38;;;;;;;4.03;1.15;;;;;;;24.24;34.84;99824.94;5038553;28;20046;-84
2022/06/04 09:00:18;;;;;;;3.35;1.20;;;;;;;24.37;32.86;99808.31;4988504;28;20469;-84
2022/06/04 09:03:07;;;;;;;9.43;1.30;;;;;;;23.96;32.38;99811.53;4992936;28;20025;-86
2022/06/04 09:05:51;;;;;;;1.98;1.23;;;;;;;24.10;33.08;99822.22;4984749;28;20054;-86
2022/06/04 09:08:59;;;;;;;1.95;1.20;;;;;;;24.33;31.25;99771.38;5021861;28;20172;-85
2022/06/04 09:11:29;;;;;;;3.42;1.20;;;;;;;24.64;30.85;99805.84;4952385;29;20134;-85
2022/06/04 09:14:03;;;;;;;2.05;1.30;;;;;;;24.00;31.61;99808.63;4937776;29;20039;-86
2022/06/04 09:16:36;;;;;;;2.47;1.20;;;;;;;23.19;32.20;99778.69;4982111;28;20049;-85
2022/06/04 09:19:03;;;;;;;3.08;1.30;;;;;;;23.32;32.22;99790.34;4996854;28;20030;-87
2022/06/04 09:21:37;;;;;;;4.40;1.30;;;;;;;23.71;32.31;99801.47;4968650;28;20042;-86
2022/06/04 09:24:04;;;;;;;2.95;1.33;;;;;;;23.65;34.01;99770.91;5004758;28;20061;-87
2022/06/04 09:26:45;;;;;;;3.55;1.30;;;;;;;24.57;32.70;99800.91;4995319;28;20065;-86
2022/06/04 09:29:30;;;;;;;4.55;1.40;;;;;;;24.30;31.54;99799.84;5014179;28;20042;-87
2022/06/04 09:32:10;;;;;;;2.15;1.13;;;;;;;23.34;32.46;99796.38;5012480;28;20061;-87
2022/06/04 09:34:39;;;;;;;2.42;1.30;;;;;;;22.66;33.98;99789.44;4983173;28;20054;-88
2022/06/04 09:37:07;;;;;;;5.72;1.52;;;;;;;22.42;35.21;99768.63;4981272;28;20050;-87
2022/06/04 09:39:40;;;;;;;2.85;1.30;;;;;;;22.33;34.69;99743.50;4992801;28;20070;-87
2022/06/04 09:42:29;;;;;;;2.97;1.42;;;;;;;22.17;34.61;99799.84;4989262;28;20105;-86
2022/06/04 09:45:03;;;;;;;3.08;1.30;;;;;;;21.59;35.85;99803.50;4990832;28;20034;-88
2022/06/04 09:47:47;;;;;;;6.00;1.50;;;;;;;21.29;36.81;99795.19;5014968;28;20073;-88
2022/06/04 09:50:24;;;;;;;3.58;1.38;;;;;;;21.45;37.02;99800.66;4984006;28;20769;-88
2022/06/04 09:53:02;;;;;;;3.40;1.60;;;;;;;21.33;36.58;99786.22;4994512;28;20062;-88
2022/06/04 09:55:28;;;;;;;1.90;1.33;;;;;;;21.25;37.42;99765.44;4976314;28;20054;-86
2022/06/04 09:58:18;;;;;;;2.30;1.35;;;;;;;21.09;36.19;99755.69;4976852;28;20034;-86
2022/06/04 10:01:07;;;;;;;2.90;1.40;;;;;;;21.06;36.18;99746.13;5000866;28;20105;-86
2022/06/04 10:03:36;;;;;;;2.17;1.20;;;;;;;21.37;37.13;99769.34;4984484;28;20129;-86
2022/06/04 10:06:23;;;;;;;3.67;1.10;;;;;;;21.12;36.36;99787.19;4981999;28;20020;-86
2022/06/04 10:11:52;;;;;;;5.05;1.58;;;;;;;21.12;37.29;99774.88;5007077;28;20081;-85
2022/06/04 10:14:31;;;;;;;3.13;1.55;;;;;;;21.10;37.40;99803.09;5004136;28;20171;-81
2022/06/04 10:17:25;;;;;;;5.18;1.48;;;;;;;21.03;37.86;99791.13;5030585;28;20038;-88
2022/06/04 10:20:04;;;;;;;2.50;1.30;;;;;;;20.84;37.40;99769.09;5011498;28;20065;-88
2022/06/04 10:25:23;;;;;;;4.32;1.25;;;;;;;20.81;38.03;99796.47;5439645;22;20070;-89
2022/06/04 10:50:00;;;;;;;9.55;1.75;;;;;;;22.81;36.31;99770.13;5076406;24;20058;-88
2022/06/04 11:01:48;;;;;;;2.47;1.25;;;;;;;22.74;35.98;99763.47;4849176;29;20074;-87
2022/06/04 11:04:35;;;;;;;2.65;1.30;;;;;;;22.78;35.27;99726.19;4801014;29;20518;-86
2022/06/04 11:07:40;;;;;;;2.40;1.40;;;;;;;23.02;33.96;99752.28;4989466;24;20137;-84
2022/06/04 11:10:26;;;;;;;3.95;1.70;;;;;;;23.51;33.93;99739.88;4801010;29;20078;-84
2022/06/04 11:18:20;;;;;;;2.08;1.20;;;;;;;26.01;29.62;99706.00;4861761;24;20048;-85
2022/06/04 11:20:52;;;;;;;4.60;1.40;;;;;;;26.34;29.63;99694.88;4844955;29;20056;-84
2022/06/04 11:23:40;;;;;;;2.83;1.20;;;;;;;26.46;28.48;99749.94;4852575;29;20050;-83
2022/06/04 11:26:16;;;;;;;3.67;1.42;;;;;;;25.88;31.22;99715.75;4858551;29;20050;-82
2022/06/04 11:28:42;;;;;;;4.68;1.30;;;;;;;25.38;29.54;99725.19;4844663;29;20597;-82
2022/06/04 11:31:23;;;;;;;5.95;1.40;;;;;;;24.06;31.69;99752.63;4842789;29;20030;-79
2022/06/04 11:34:04;;;;;;;2.28;1.33;;;;;;;24.08;32.26;99756.03;4846487;29;20550;-81
2022/06/04 11:36:42;;;;;;;2.90;1.23;;;;;;;23.70;32.73;99752.09;4844517;29;20038;-82
2022/06/04 11:39:35;;;;;;;3.05;1.33;;;;;;;23.53;34.01;99745.91;4848517;29;20043;-80
2022/06/04 11:42:19;;;;;;;2.40;1.20;;;;;;;24.17;33.23;99733.44;4833085;29;20098;-80
2022/06/04 11:45:00;;;;;;;1.85;1.13;;;;;;;23.83;32.87;99742.53;4830009;29;20069;-80
2022/06/04 11:47:55;;;;;;;2.67;1.33;;;;;;;23.82;33.39;99723.13;4855886;29;20522;-81
2022/06/04 11:50:27;;;;;;;1.70;1.10;;;;;;;24.06;33.28;99734.09;4840600;29;20026;-80
2022/06/04 11:52:56;;;;;;;1.90;1.20;;;;;;;24.08;33.67;99734.84;4839496;29;20108;-79
2022/06/04 11:55:27;;;;;;;2.33;1.20;;;;;;;24.10;34.22;99721.50;4834825;29;20033;-80
2022/06/04 11:58:11;;;;;;;2.55;1.38;;;;;;;24.23;33.64;99735.72;4851506;29;20081;-79
2022/06/04 12:00:41;;;;;;;3.03;1.13;;;;;;;24.30;33.54;99734.44;4832895;29;20124;-79
2022/06/04 12:03:09;;;;;;;2.55;1.30;;;;;;;24.38;32.52;99741.13;4833735;29;20820;-83
2022/06/04 12:05:56;;;;;;;4.13;1.30;;;;;;;24.93;31.99;99720.03;4841388;29;20041;-78
2022/06/04 12:08:24;;;;;;;2.63;1.20;;;;;;;25.57;30.46;99692.03;4840991;29;20573;-81
2022/06/04 12:11:05;;;;;;;1.88;1.10;;;;;;;26.35;29.41;99723.19;4809404;29;20125;-79
2022/06/04 12:14:01;;;;;;;4.35;1.20;;;;;;;27.44;29.52;99710.22;4848085;29;20046;-78
2022/06/04 12:16:33;;;;;;;2.17;1.00;;;;;;;28.52;27.66;99707.41;4844958;29;20046;-78
2022/06/04 12:19:02;;;;;;;2.28;0.90;;;;;;;29.32;25.96;99709.97;4842687;29;20045;-78
2022/06/04 12:24:35;;;;;;;3.63;1.10;;;;;;;27.87;26.05;99705.25;4844718;29;20476;-79
2022/06/04 12:27:06;;;;;;;10.80;1.17;;;;;;;27.96;25.96;99707.22;4849694;29;20077;-78
2022/06/04 12:29:45;;;;;;;4.07;1.10;;;;;;;27.77;25.64;99699.78;4841828;29;20054;-79
2022/06/04 12:32:23;;;;;;;1.98;1.20;;;;;;;27.34;26.83;99700.22;4813518;29;20077;-79
2022/06/04 12:35:05;;;;;;;3.90;1.33;;;;;;;26.75;26.87;99697.34;4827791;29;20042;-79
2022/06/04 12:37:36;;;;;;;2.90;1.40;;;;;;;26.27;27.69;99707.75;4845693;29;20041;-77
2022/06/04 12:40:24;;;;;;;6.25;1.50;;;;;;;26.32;28.86;99702.97;4838252;29;20129;-80
2022/06/04 12:43:09;;;;;;;3.17;1.48;;;;;;;26.37;28.14;99692.00;4831755;29;20136;-79
2022/06/04 12:45:48;;;;;;;5.40;1.58;;;;;;;26.26;28.78;99679.47;4845954;29;20050;-77
2022/06/04 12:48:55;;;;;;;2.42;1.27;;;;;;;26.54;28.32;99694.41;4835160;29;20105;-78
2022/06/04 12:51:25;;;;;;;2.60;1.38;;;;;;;27.12;27.77;99662.78;4841844;29;20071;-79